createdAt,value
2022-12-22T00:01:50.646Z,27.70
2022-12-22T00:03:53.625Z,25.20
2022-12-22T00:05:56.393Z,24.60
2022-12-22T00:07:59.207Z,26.50
2022-12-22T00:10:02.036Z,27.20
2022-12-22T00:12:05.866Z,25.50
2022-12-22T00:14:10.479Z,24.10
2022-12-22T00:16:13.333Z,30.70
2022-12-22T00:18:16.571Z,26.70
2022-12-22T00:20:21.029Z,22.10
2022-12-22T00:22:25.284Z,26.80
2022-12-22T00:24:28.166Z,26.30
2022-12-22T00:26:32.621Z,26.80
2022-12-22T00:28:36.254Z,26.20
2022-12-22T00:30:39.049Z,25.60
2022-12-22T00:32:41.934Z,25.30
2022-12-22T00:34:45.257Z,24.10
2022-12-22T00:36:48.061Z,27.00
2022-12-22T00:38:50.820Z,23.60
2022-12-22T00:40:53.629Z,25.60
2022-12-22T00:42:56.413Z,25.70
2022-12-22T00:45:02.252Z,25.80
2022-12-22T00:47:05.241Z,25.40
2022-12-22T00:49:08.749Z,25.10
2022-12-22T00:51:12.141Z,27.40
2022-12-22T00:53:15.567Z,26.10
2022-12-22T00:55:24.951Z,27.70
2022-12-22T00:57:28.042Z,29.20
2022-12-22T00:59:31.023Z,28.30
2022-12-22T01:01:33.901Z,26.50
2022-12-22T01:03:36.808Z,26.10
2022-12-22T01:05:39.637Z,25.20
2022-12-22T01:07:42.508Z,26.10
2022-12-22T01:09:50.852Z,30.20
2022-12-22T01:11:53.775Z,27.80
2022-12-22T01:13:56.533Z,31.10
2022-12-22T01:16:00.170Z,31.80
2022-12-22T01:18:03.681Z,30.00
2022-12-22T01:20:08.665Z,28.10
2022-12-22T01:22:12.272Z,26.80
2022-12-22T01:24:17.388Z,28.00
2022-12-22T01:26:20.201Z,29.50
2022-12-22T01:28:22.895Z,27.40
2022-12-22T01:30:25.650Z,28.50
2022-12-22T01:32:29.005Z,32.30
2022-12-22T01:34:31.785Z,27.70
2022-12-22T01:36:34.502Z,26.70
2022-12-22T01:38:37.425Z,26.80
2022-12-22T01:40:40.152Z,27.70
2022-12-22T01:42:43.114Z,25.90
2022-12-22T01:44:45.815Z,26.20
2022-12-22T01:46:48.767Z,26.40
2022-12-22T01:48:51.635Z,26.90
2022-12-22T01:50:54.427Z,25.90
2022-12-22T01:52:57.665Z,27.20
2022-12-22T01:55:05.239Z,26.80
2022-12-22T01:57:08.169Z,26.50
2022-12-22T01:59:11.368Z,30.80
2022-12-22T02:01:14.416Z,28.40
2022-12-22T02:03:18.332Z,28.30
2022-12-22T02:05:21.197Z,28.00
2022-12-22T02:07:36.980Z,28.50
2022-12-22T02:09:49.413Z,28.30
2022-12-22T02:12:00.708Z,28.40
2022-12-22T02:14:15.770Z,28.00
2022-12-22T02:16:25.955Z,25.20
2022-12-22T02:18:38.220Z,25.70
2022-12-22T02:20:46.511Z,26.80
2022-12-22T02:23:00.431Z,28.40
2022-12-22T02:25:09.727Z,25.60
2022-12-22T02:27:13.543Z,28.20
2022-12-22T02:29:25.885Z,28.60
2022-12-22T02:31:36.578Z,24.60
2022-12-22T02:33:39.816Z,28.30
2022-12-22T02:35:48.880Z,27.10
2022-12-22T02:38:04.250Z,23.30
2022-12-22T02:40:15.846Z,28.40
2022-12-22T02:42:33.135Z,26.40
2022-12-22T02:44:47.774Z,28.00
2022-12-22T02:46:59.928Z,27.20
2022-12-22T02:49:10.336Z,27.10
2022-12-22T02:51:17.868Z,28.80
2022-12-22T02:53:22.420Z,27.20
2022-12-22T02:55:26.131Z,27.30
2022-12-22T02:57:29.374Z,28.70
2022-12-22T02:59:32.445Z,28.70
2022-12-22T03:01:35.829Z,28.50
2022-12-22T03:03:38.950Z,25.30
2022-12-22T03:05:41.993Z,28.60
2022-12-22T03:07:44.797Z,24.70
2022-12-22T03:09:47.581Z,30.40
2022-12-22T03:11:50.381Z,30.50
2022-12-22T03:13:53.169Z,29.40
2022-12-22T03:15:56.376Z,27.90
2022-12-22T03:18:02.425Z,28.10
2022-12-22T03:20:07.607Z,27.30
2022-12-22T03:22:10.532Z,27.20
2022-12-22T03:24:13.323Z,26.10
2022-12-22T03:26:16.029Z,26.20
2022-12-22T03:28:20.073Z,25.90
2022-12-22T03:30:22.945Z,30.00
2022-12-22T03:32:25.819Z,26.90
2022-12-22T03:34:28.515Z,26.20
2022-12-22T03:36:31.250Z,29.30
2022-12-22T03:38:34.352Z,26.30
2022-12-22T03:40:37.135Z,27.10
2022-12-22T03:42:39.967Z,28.50
2022-12-22T03:44:42.738Z,26.10
2022-12-22T03:46:45.573Z,27.70
2022-12-22T03:48:48.351Z,26.10
2022-12-22T03:50:51.061Z,27.30
2022-12-22T03:52:53.786Z,27.90
2022-12-22T03:54:56.574Z,25.90
2022-12-22T03:56:59.242Z,26.70
2022-12-22T03:59:02.110Z,28.50
2022-12-22T04:01:08.302Z,26.00
2022-12-22T04:03:11.396Z,25.30
2022-12-22T04:05:15.009Z,27.80
2022-12-22T04:07:17.827Z,25.90
2022-12-22T04:09:20.669Z,27.70
2022-12-22T04:11:23.363Z,28.90
2022-12-22T04:13:26.137Z,25.10
2022-12-22T04:15:31.279Z,28.10
2022-12-22T04:17:33.968Z,28.90
2022-12-22T04:19:36.786Z,26.40
2022-12-22T04:21:39.650Z,25.40
2022-12-22T04:23:42.406Z,26.40
2022-12-22T04:25:45.182Z,27.70
2022-12-22T04:27:48.080Z,28.50
2022-12-22T04:29:51.026Z,27.40
2022-12-22T04:31:53.903Z,27.40
2022-12-22T04:33:56.685Z,28.00
2022-12-22T04:35:59.309Z,30.00
2022-12-22T04:38:01.986Z,29.20
2022-12-22T04:40:06.877Z,30.40
2022-12-22T04:42:09.488Z,28.60
2022-12-22T04:44:12.123Z,28.80
2022-12-22T04:46:15.017Z,29.60
2022-12-22T04:48:17.967Z,28.60
2022-12-22T04:50:20.734Z,34.10
2022-12-22T04:52:23.567Z,28.80
2022-12-22T04:54:26.323Z,32.60
2022-12-22T04:56:29.066Z,30.20
2022-12-22T04:58:32.614Z,33.50
2022-12-22T05:00:35.260Z,34.30
2022-12-22T05:02:38.160Z,30.00
2022-12-22T05:04:40.943Z,31.90
2022-12-22T05:06:43.659Z,31.80
2022-12-22T05:08:46.459Z,29.80
2022-12-22T05:10:49.129Z,29.90
2022-12-22T05:12:51.821Z,26.20
2022-12-22T05:14:54.579Z,32.00
2022-12-22T05:16:57.488Z,31.50
2022-12-22T05:19:00.395Z,26.80
2022-12-22T05:21:05.547Z,29.50
2022-12-22T05:23:08.186Z,30.40
2022-12-22T05:25:11.238Z,33.00
2022-12-22T05:27:13.991Z,32.40
2022-12-22T05:29:16.800Z,34.40
2022-12-22T05:31:22.089Z,32.80
2022-12-22T05:33:24.886Z,31.00
2022-12-22T05:35:27.658Z,31.90
2022-12-22T05:37:30.568Z,30.60
2022-12-22T05:39:33.352Z,28.90
2022-12-22T05:41:36.067Z,26.80
2022-12-22T05:43:39.123Z,29.00
2022-12-22T05:45:43.223Z,27.20
2022-12-22T05:47:49.323Z,25.90
2022-12-22T05:49:51.958Z,28.20
2022-12-22T05:51:54.665Z,27.00
2022-12-22T05:53:57.500Z,28.50
2022-12-22T05:56:00.204Z,31.30
2022-12-22T05:58:02.931Z,29.40
2022-12-22T06:00:09.339Z,28.40
2022-12-22T06:02:14.737Z,29.30
2022-12-22T06:04:17.987Z,28.20
2022-12-22T06:06:21.021Z,27.70
2022-12-22T06:08:23.990Z,28.00
2022-12-22T06:10:26.714Z,26.00
2022-12-22T06:12:29.418Z,26.40
2022-12-22T06:14:32.322Z,28.30
2022-12-22T06:16:35.212Z,27.20
2022-12-22T06:18:38.430Z,25.90
2022-12-22T06:20:41.183Z,27.20
2022-12-22T06:22:43.937Z,29.80
2022-12-22T06:24:46.560Z,32.30
2022-12-22T06:26:49.305Z,27.90
2022-12-22T06:28:52.070Z,37.70
2022-12-22T06:30:55.317Z,47.40
2022-12-22T06:32:58.811Z,67.90
2022-12-22T06:35:01.586Z,44.80
2022-12-22T06:37:04.301Z,40.00
2022-12-22T06:39:07.029Z,65.20
2022-12-22T06:41:09.698Z,64.50
2022-12-22T06:43:12.363Z,57.10
2022-12-22T06:45:15.456Z,40.10
2022-12-22T06:47:18.274Z,31.40
2022-12-22T06:49:21.254Z,31.40
2022-12-22T06:51:23.950Z,29.10
2022-12-22T06:53:26.680Z,28.70
2022-12-22T06:55:29.483Z,30.30
2022-12-22T06:57:32.194Z,28.00
2022-12-22T06:59:34.920Z,24.00
2022-12-22T07:01:37.854Z,27.50
2022-12-22T07:03:40.698Z,25.40
2022-12-22T07:05:43.551Z,29.70
2022-12-22T07:07:46.392Z,26.20
2022-12-22T07:09:49.254Z,24.80
2022-12-22T07:11:51.957Z,30.60
2022-12-22T07:13:54.755Z,26.90
2022-12-22T07:16:01.035Z,27.00
2022-12-22T07:18:04.880Z,31.40
2022-12-22T07:20:10.006Z,28.60
2022-12-22T07:22:12.721Z,31.10
2022-12-22T07:24:15.376Z,30.20
2022-12-22T07:26:18.314Z,31.90
2022-12-22T07:28:21.571Z,29.80
2022-12-22T07:30:24.251Z,31.60
2022-12-22T07:32:26.922Z,28.00
2022-12-22T07:34:29.649Z,32.20
2022-12-22T07:36:32.353Z,30.20
2022-12-22T07:38:37.668Z,34.80
2022-12-22T07:40:42.357Z,33.00
2022-12-22T07:42:45.933Z,30.60
2022-12-22T07:44:48.772Z,31.60
2022-12-22T07:46:51.600Z,32.60
2022-12-22T07:48:54.487Z,34.20
2022-12-22T07:51:02.567Z,33.30
2022-12-22T07:53:05.376Z,32.30
2022-12-22T07:55:09.483Z,33.70
2022-12-22T07:57:12.182Z,30.80
2022-12-22T07:59:15.541Z,31.70
2022-12-22T08:01:18.910Z,31.00
2022-12-22T08:03:21.667Z,29.20
2022-12-22T08:05:25.719Z,30.50
2022-12-22T08:07:28.389Z,31.60
2022-12-22T08:09:31.048Z,31.20
2022-12-22T08:11:33.948Z,31.90
2022-12-22T08:13:36.921Z,32.50
2022-12-22T08:15:39.719Z,31.00
2022-12-22T08:17:42.388Z,31.60
2022-12-22T08:19:45.239Z,32.60
2022-12-22T08:21:52.371Z,32.40
2022-12-22T08:23:55.952Z,31.30
2022-12-22T08:26:04.460Z,32.70
2022-12-22T08:28:07.593Z,30.30
2022-12-22T08:30:11.973Z,29.00
2022-12-22T08:32:15.087Z,30.20
2022-12-22T08:34:17.795Z,30.30
2022-12-22T08:36:20.537Z,35.00
2022-12-22T08:38:23.464Z,31.40
2022-12-22T08:40:30.643Z,28.70
2022-12-22T08:42:33.646Z,34.40
2022-12-22T08:44:37.217Z,31.10
2022-12-22T08:46:39.895Z,29.90
2022-12-22T08:48:42.550Z,34.40
2022-12-22T08:50:45.348Z,28.90
2022-12-22T08:52:48.083Z,30.60
2022-12-22T08:54:50.746Z,31.60
2022-12-22T08:56:53.387Z,32.00
2022-12-22T08:58:56.177Z,33.30
2022-12-22T09:00:58.939Z,32.70
2022-12-22T09:03:01.841Z,29.90
2022-12-22T09:05:05.600Z,32.80
2022-12-22T09:07:08.261Z,30.60
2022-12-22T09:09:12.448Z,28.90
2022-12-22T09:11:15.510Z,29.30
2022-12-22T09:13:18.304Z,32.20
2022-12-22T09:15:21.102Z,30.80
2022-12-22T09:17:23.730Z,28.10
2022-12-22T09:19:26.394Z,30.10
2022-12-22T09:21:29.572Z,30.50
2022-12-22T09:23:32.210Z,30.60
2022-12-22T09:25:35.570Z,30.50
2022-12-22T09:27:38.322Z,34.80
2022-12-22T09:29:41.227Z,32.90
2022-12-22T09:31:44.345Z,32.10
2022-12-22T09:33:47.678Z,36.70
2022-12-22T09:35:50.430Z,34.50
2022-12-22T09:37:53.152Z,36.50
2022-12-22T09:39:55.840Z,34.90
2022-12-22T09:42:00.309Z,32.50
2022-12-22T09:44:04.601Z,36.00
2022-12-22T09:46:15.619Z,36.50
2022-12-22T09:48:18.395Z,37.40
2022-12-22T09:50:23.172Z,36.50
2022-12-22T09:52:45.888Z,31.30
2022-12-22T09:54:48.786Z,32.30
2022-12-22T09:56:51.586Z,34.50
2022-12-22T09:58:55.873Z,31.10
2022-12-22T10:01:11.766Z,35.60
2022-12-22T10:03:29.388Z,33.90
2022-12-22T10:05:37.113Z,34.80
2022-12-22T10:07:40.205Z,34.50
2022-12-22T10:09:51.791Z,31.90
2022-12-22T10:11:57.240Z,34.20
2022-12-22T10:13:59.879Z,31.40
2022-12-22T10:16:17.111Z,34.80
2022-12-22T10:18:21.716Z,28.30
2022-12-22T10:20:25.952Z,31.90
2022-12-22T10:22:32.987Z,35.30
2022-12-22T10:24:35.968Z,34.50
2022-12-22T10:26:38.855Z,33.50
2022-12-22T10:28:45.915Z,31.70
2022-12-22T10:30:49.256Z,32.10
2022-12-22T10:33:07.331Z,38.50
2022-12-22T10:35:10.123Z,31.20
2022-12-22T10:37:13.000Z,35.90
2022-12-22T10:39:22.206Z,33.70
2022-12-22T10:41:27.344Z,32.90
2022-12-22T10:43:32.972Z,32.80
2022-12-22T10:45:36.442Z,32.30
2022-12-22T10:47:46.202Z,34.90
2022-12-22T10:51:56.035Z,34.10
2022-12-22T10:53:59.057Z,33.30
2022-12-22T10:56:07.072Z,33.90
2022-12-22T10:58:17.129Z,33.00
2022-12-22T11:00:27.645Z,34.20
2022-12-22T11:02:34.454Z,31.60
2022-12-22T11:04:37.408Z,33.80
2022-12-22T11:06:41.022Z,30.00
2022-12-22T11:08:51.020Z,32.40
2022-12-22T11:10:59.540Z,38.50
2022-12-22T11:13:28.026Z,35.50
2022-12-22T11:15:38.220Z,35.40
2022-12-22T11:17:52.942Z,30.40
2022-12-22T11:20:16.511Z,32.00
2022-12-22T11:22:34.869Z,29.20
2022-12-22T11:24:48.049Z,31.50
2022-12-22T11:27:03.359Z,29.10
2022-12-22T11:29:24.610Z,30.80
2022-12-22T11:31:41.261Z,28.10
2022-12-22T11:33:58.123Z,28.90
2022-12-22T11:36:03.768Z,29.60
2022-12-22T11:38:16.430Z,29.90
2022-12-22T11:40:29.885Z,29.60
2022-12-22T11:43:05.453Z,35.60
2022-12-22T11:45:24.151Z,30.70
2022-12-22T11:47:38.190Z,28.60
2022-12-22T11:49:54.405Z,29.60
2022-12-22T11:52:13.667Z,25.30
2022-12-22T11:54:41.970Z,31.90
2022-12-22T11:56:50.544Z,32.70
2022-12-22T11:59:09.866Z,31.60
2022-12-22T12:01:27.340Z,31.70
2022-12-22T12:03:50.749Z,33.00
2022-12-22T12:06:27.522Z,32.00
2022-12-22T12:08:47.806Z,32.20
2022-12-22T12:10:55.919Z,32.30
2022-12-22T12:13:06.397Z,33.20
2022-12-22T12:15:23.645Z,35.30
2022-12-22T12:17:36.983Z,32.20
2022-12-22T12:20:19.696Z,30.60
2022-12-22T12:22:35.840Z,38.00
2022-12-22T12:24:54.167Z,33.70
2022-12-22T12:27:05.124Z,30.50
2022-12-22T12:29:16.085Z,33.90
2022-12-22T12:31:26.547Z,28.50
2022-12-22T12:33:38.157Z,31.00
2022-12-22T12:35:50.066Z,31.10
2022-12-22T12:37:58.566Z,31.10
2022-12-22T12:40:20.689Z,29.00
2022-12-22T12:42:29.807Z,29.70
2022-12-22T12:44:35.572Z,25.70
2022-12-22T12:47:04.760Z,32.00
2022-12-22T12:49:46.258Z,27.30
2022-12-22T12:51:49.648Z,31.00
2022-12-22T12:54:21.969Z,30.40
2022-12-22T12:56:59.618Z,29.70
2022-12-22T12:59:02.366Z,30.40
2022-12-22T13:01:09.057Z,31.60
2022-12-22T13:05:57.143Z,30.10
2022-12-22T13:08:21.837Z,30.00
2022-12-22T13:10:27.642Z,30.80
2022-12-22T13:12:47.817Z,28.10
2022-12-22T13:14:57.047Z,27.70
2022-12-22T13:17:30.990Z,30.50
2022-12-22T13:19:33.958Z,25.10
2022-12-22T13:21:56.021Z,30.20
2022-12-22T13:24:24.227Z,25.30
2022-12-22T13:26:30.894Z,29.20
2022-12-22T13:28:39.174Z,29.00
2022-12-22T13:30:48.000Z,32.00
2022-12-22T13:32:51.684Z,30.80
2022-12-22T13:37:27.763Z,30.30
2022-12-22T13:39:30.408Z,29.00
2022-12-22T13:41:34.225Z,33.10
2022-12-22T13:43:37.693Z,28.20
2022-12-22T13:45:43.012Z,28.80
2022-12-22T13:47:47.663Z,29.20
2022-12-22T13:50:08.344Z,29.50
2022-12-22T13:52:14.981Z,32.10
2022-12-22T13:54:22.563Z,32.10
2022-12-22T13:56:27.352Z,30.10
2022-12-22T13:58:34.905Z,32.50
2022-12-22T14:00:37.838Z,31.30
2022-12-22T14:02:40.650Z,32.50
2022-12-22T14:04:49.112Z,33.50
2022-12-22T14:06:55.113Z,34.60
2022-12-22T14:09:14.393Z,32.40
2022-12-22T14:11:17.445Z,34.70
2022-12-22T14:13:24.389Z,43.80
2022-12-22T14:15:27.231Z,36.90
2022-12-22T14:17:33.092Z,42.80
2022-12-22T14:19:37.704Z,37.00
2022-12-22T14:21:41.425Z,35.20
2022-12-22T14:23:45.152Z,34.90
2022-12-22T14:25:49.732Z,34.90
2022-12-22T14:27:54.698Z,35.50
2022-12-22T14:29:59.591Z,34.40
2022-12-22T14:32:03.153Z,34.70
2022-12-22T14:34:26.737Z,33.10
2022-12-22T14:36:40.646Z,33.40
2022-12-22T14:38:45.378Z,33.80
2022-12-22T14:40:54.647Z,35.80
2022-12-22T14:43:01.739Z,33.50
2022-12-22T14:45:15.412Z,33.30
2022-12-22T14:47:24.095Z,34.80
2022-12-22T14:49:27.328Z,31.90
2022-12-22T14:51:30.416Z,37.40
2022-12-22T14:53:42.638Z,31.50
2022-12-22T14:55:50.993Z,31.10
2022-12-22T14:57:55.924Z,31.90
2022-12-22T15:00:01.229Z,32.20
2022-12-22T15:02:20.619Z,29.80
2022-12-22T15:04:23.445Z,29.40
2022-12-22T15:06:35.157Z,30.00
2022-12-22T15:08:39.051Z,31.30
2022-12-22T15:10:43.599Z,33.20
2022-12-22T15:12:47.439Z,31.90
2022-12-22T15:14:50.326Z,28.40
2022-12-22T15:16:57.548Z,30.00
2022-12-22T15:19:00.387Z,32.30
2022-12-22T15:21:03.157Z,32.90
2022-12-22T15:23:11.723Z,30.80
2022-12-22T15:25:17.363Z,31.50
2022-12-22T15:27:20.175Z,31.80
2022-12-22T15:29:22.905Z,31.50
2022-12-22T15:31:25.934Z,29.40
2022-12-22T15:33:30.309Z,29.30
2022-12-22T15:35:34.119Z,32.20
2022-12-22T15:37:36.898Z,32.20
2022-12-22T15:39:39.654Z,33.70
2022-12-22T15:41:43.147Z,33.60
2022-12-22T15:44:01.027Z,34.80
2022-12-22T15:46:05.922Z,35.10
2022-12-22T15:48:13.568Z,31.00
2022-12-22T15:50:19.325Z,37.10
2022-12-22T15:52:22.223Z,34.10
2022-12-22T15:54:27.007Z,33.60
2022-12-22T15:56:32.012Z,28.20
2022-12-22T15:58:36.430Z,30.00
2022-12-22T16:00:39.295Z,29.70
2022-12-22T16:02:43.899Z,29.50
2022-12-22T16:04:49.433Z,29.80
2022-12-22T16:06:53.170Z,36.10
2022-12-22T16:08:55.986Z,38.50
2022-12-22T16:10:58.969Z,35.80
2022-12-22T16:13:03.699Z,48.00
2022-12-22T16:15:12.854Z,39.90
2022-12-22T16:17:18.360Z,39.20
2022-12-22T16:19:21.148Z,34.00
2022-12-22T16:21:30.627Z,35.90
2022-12-22T16:23:35.399Z,33.10
2022-12-22T16:25:39.140Z,40.80
2022-12-22T16:27:42.027Z,42.70
2022-12-22T16:29:51.071Z,26.10
2022-12-22T16:32:01.544Z,19.40
2022-12-22T16:34:04.680Z,22.50
2022-12-22T16:36:09.115Z,20.50
2022-12-22T16:38:18.155Z,18.70
2022-12-22T16:40:22.309Z,19.00
2022-12-22T16:44:59.761Z,24.90
2022-12-22T16:47:04.443Z,27.20
2022-12-22T16:49:08.871Z,26.10
2022-12-22T16:51:16.956Z,28.10
2022-12-22T16:53:19.862Z,26.30
2022-12-22T16:55:22.627Z,26.70
2022-12-22T16:57:25.504Z,26.10
2022-12-22T16:59:28.347Z,30.80
2022-12-22T17:01:37.246Z,27.20
2022-12-22T17:03:40.448Z,26.00
2022-12-22T17:05:45.898Z,28.60
2022-12-22T17:07:50.339Z,28.10
2022-12-22T17:09:56.627Z,28.00
2022-12-22T17:12:00.784Z,26.20
2022-12-22T17:14:07.054Z,28.00
2022-12-22T17:16:18.402Z,25.90
2022-12-22T17:18:22.725Z,27.10
2022-12-22T17:20:29.135Z,26.60
2022-12-22T17:22:33.156Z,24.30
2022-12-22T17:24:35.845Z,26.00
2022-12-22T17:26:38.815Z,22.10
2022-12-22T17:28:42.499Z,21.60
2022-12-22T17:30:45.265Z,23.70
2022-12-22T17:32:48.727Z,23.10
2022-12-22T17:34:51.575Z,21.60
2022-12-22T17:36:54.447Z,26.30
2022-12-22T17:38:58.034Z,21.90
2022-12-22T17:41:00.889Z,23.80
2022-12-22T17:43:03.541Z,23.90
2022-12-22T17:45:13.863Z,22.80
2022-12-22T17:47:18.739Z,22.40
2022-12-22T17:49:21.504Z,22.70
2022-12-22T17:51:26.799Z,23.00
2022-12-22T17:53:33.891Z,26.00
2022-12-22T17:58:02.228Z,31.60
2022-12-22T18:00:18.366Z,25.60
2022-12-22T18:02:23.123Z,57.40
2022-12-22T18:04:26.035Z,24.10
2022-12-22T18:06:34.301Z,42.40
2022-12-22T18:08:37.169Z,30.20
2022-12-22T18:10:40.059Z,21.50
2022-12-22T18:12:43.684Z,21.10
2022-12-22T18:14:47.087Z,22.70
2022-12-22T18:16:50.369Z,20.00
2022-12-22T18:18:53.321Z,20.60
2022-12-22T18:21:05.788Z,25.40
2022-12-22T18:23:16.351Z,20.30
2022-12-22T18:25:22.535Z,21.00
2022-12-22T18:27:25.789Z,20.70
2022-12-22T18:29:28.787Z,23.90
2022-12-22T18:31:31.739Z,22.00
2022-12-22T18:33:34.923Z,21.30
2022-12-22T18:35:38.755Z,21.50
2022-12-22T18:37:42.357Z,21.10
2022-12-22T18:39:45.577Z,21.80
2022-12-22T18:41:48.622Z,19.80
2022-12-22T18:43:52.344Z,18.40
2022-12-22T18:45:55.047Z,16.80
2022-12-22T18:47:58.088Z,16.90
2022-12-22T18:50:00.899Z,19.70
2022-12-22T18:52:04.275Z,18.00
2022-12-22T18:54:20.502Z,17.00
2022-12-22T18:56:26.845Z,18.20
2022-12-22T18:58:29.645Z,20.30
2022-12-22T19:00:36.586Z,16.90
2022-12-22T19:02:43.435Z,15.30
2022-12-22T19:04:46.986Z,16.20
2022-12-22T19:06:50.017Z,16.10
2022-12-22T19:08:52.940Z,16.20
2022-12-22T19:10:58.693Z,16.20
2022-12-22T19:13:04.349Z,15.90
2022-12-22T19:15:18.360Z,15.60
2022-12-22T19:17:23.811Z,16.50
2022-12-22T19:19:27.171Z,13.20
2022-12-22T19:21:30.385Z,14.10
2022-12-22T19:23:33.804Z,13.40
2022-12-22T19:25:36.801Z,14.40
2022-12-22T19:27:41.293Z,12.40
2022-12-22T19:29:44.775Z,11.70
2022-12-22T19:31:48.126Z,12.30
2022-12-22T19:33:52.760Z,9.00
2022-12-22T19:35:56.683Z,11.30
2022-12-22T19:38:00.034Z,11.10
2022-12-22T19:40:03.841Z,12.30
2022-12-22T19:42:14.831Z,10.00
2022-12-22T19:44:21.431Z,10.70
2022-12-22T19:46:28.437Z,10.40
2022-12-22T19:48:31.673Z,8.00
2022-12-22T19:50:34.571Z,10.10
2022-12-22T19:52:37.573Z,9.30
2022-12-22T19:54:40.924Z,9.20
2022-12-22T19:56:47.167Z,7.10
2022-12-22T19:58:50.852Z,6.90
2022-12-22T20:00:55.168Z,5.80
2022-12-22T20:02:58.639Z,6.40
2022-12-22T20:05:02.762Z,4.80
2022-12-22T20:07:13.687Z,5.70
2022-12-22T20:09:16.956Z,7.50
2022-12-22T20:11:21.270Z,5.70
2022-12-22T20:13:25.674Z,4.50
2022-12-22T20:15:30.637Z,5.10
2022-12-22T20:17:33.623Z,5.00
2022-12-22T20:19:36.764Z,5.00
2022-12-22T20:21:40.042Z,4.30
2022-12-22T20:23:43.404Z,6.30
2022-12-22T20:25:50.866Z,6.80
2022-12-22T20:27:56.068Z,5.20
2022-12-22T20:29:59.280Z,4.10
2022-12-22T20:32:03.246Z,5.70
2022-12-22T20:34:06.857Z,4.30
2022-12-22T20:36:19.465Z,4.70
2022-12-22T20:38:29.963Z,5.30
2022-12-22T20:40:32.774Z,4.80
2022-12-22T20:42:36.361Z,4.60
2022-12-22T20:44:39.230Z,4.70
2022-12-22T20:47:03.706Z,4.60
2022-12-22T20:49:14.731Z,6.60
2022-12-22T20:51:19.419Z,4.40
2022-12-22T20:53:23.031Z,5.00
2022-12-22T20:55:27.991Z,4.40
2022-12-22T20:57:31.075Z,5.60
2022-12-22T20:59:34.477Z,4.00
2022-12-22T21:01:37.344Z,5.40
2022-12-22T21:03:40.488Z,4.30
2022-12-22T21:05:43.587Z,5.60
2022-12-22T21:07:48.627Z,6.60
2022-12-22T21:09:54.559Z,5.90
2022-12-22T21:11:57.654Z,5.10
2022-12-22T21:14:00.488Z,6.30
2022-12-22T21:16:03.743Z,4.60
2022-12-22T21:18:12.505Z,4.50
2022-12-22T21:20:19.089Z,5.30
2022-12-22T21:22:21.861Z,6.00
2022-12-22T21:24:24.700Z,5.50
2022-12-22T21:26:31.800Z,5.00
2022-12-22T21:28:37.809Z,3.90
2022-12-22T21:30:40.938Z,4.40
2022-12-22T21:32:44.127Z,5.10
2022-12-22T21:34:46.828Z,5.90
2022-12-22T21:36:55.824Z,5.60
2022-12-22T21:39:00.890Z,4.70
2022-12-22T21:41:07.890Z,5.70
2022-12-22T21:43:11.650Z,7.20
2022-12-22T21:45:16.698Z,7.20
2022-12-22T21:47:20.169Z,7.30
2022-12-22T21:49:24.709Z,5.60
2022-12-22T21:51:27.582Z,7.70
2022-12-22T21:53:30.572Z,5.40
2022-12-22T21:55:35.202Z,5.40
2022-12-22T21:57:37.964Z,6.70
2022-12-22T21:59:40.698Z,5.90
2022-12-22T22:01:43.617Z,5.70
2022-12-22T22:03:47.542Z,7.60
2022-12-22T22:05:50.276Z,7.10
2022-12-22T22:07:53.691Z,6.90
2022-12-22T22:09:56.481Z,5.40
2022-12-22T22:11:59.366Z,6.30
2022-12-22T22:14:04.859Z,6.70
2022-12-22T22:16:09.663Z,6.70
2022-12-22T22:18:16.411Z,5.30
2022-12-22T22:20:21.678Z,5.50
2022-12-22T22:22:24.548Z,5.60
2022-12-22T22:24:29.084Z,7.30
2022-12-22T22:26:31.893Z,5.70
2022-12-22T22:28:35.178Z,6.80
2022-12-22T22:30:40.315Z,5.20
2022-12-22T22:32:43.242Z,5.00
2022-12-22T22:34:46.088Z,5.40
2022-12-22T22:36:49.788Z,6.00
2022-12-22T22:38:52.863Z,5.50
2022-12-22T22:40:58.336Z,4.50
2022-12-22T22:43:01.052Z,5.70
2022-12-22T22:45:05.605Z,4.70
2022-12-22T22:47:08.400Z,6.60
2022-12-22T22:49:11.209Z,5.30
2022-12-22T22:51:13.897Z,5.40
2022-12-22T22:53:16.954Z,4.50
2022-12-22T22:55:19.695Z,5.40
2022-12-22T22:57:22.480Z,5.90
2022-12-22T22:59:25.184Z,5.50
2022-12-22T23:01:29.494Z,6.40
2022-12-22T23:03:32.521Z,5.10
2022-12-22T23:05:35.492Z,6.00
2022-12-22T23:07:38.342Z,5.90
2022-12-22T23:09:44.130Z,7.50
2022-12-22T23:11:46.857Z,8.40
2022-12-22T23:13:52.467Z,8.00
2022-12-22T23:15:56.824Z,7.90
2022-12-22T23:17:59.491Z,8.30
2022-12-22T23:20:02.334Z,8.10
2022-12-22T23:22:05.090Z,7.70
2022-12-22T23:24:08.852Z,9.60
2022-12-22T23:26:11.952Z,8.00
2022-12-22T23:28:14.946Z,7.80
2022-12-22T23:30:18.041Z,9.80
2022-12-22T23:32:20.797Z,9.10
2022-12-22T23:34:26.448Z,8.40
2022-12-22T23:36:29.567Z,7.20
2022-12-22T23:38:32.335Z,7.00
2022-12-22T23:40:52.430Z,8.10
2022-12-22T23:42:57.218Z,8.30
2022-12-22T23:45:00.173Z,7.60
2022-12-22T23:47:02.982Z,7.80
2022-12-22T23:49:05.753Z,8.50
2022-12-22T23:51:09.853Z,8.80
2022-12-22T23:53:12.591Z,9.00
2022-12-22T23:55:15.507Z,9.30
2022-12-22T23:57:18.227Z,8.70
2022-12-22T23:59:21.292Z,8.60
